createdAt,value
2022-09-21T00:01:28.130Z,8.47
2022-09-21T00:03:58.254Z,8.47
2022-09-21T00:06:27.919Z,8.37
2022-09-21T00:08:57.723Z,8.30
2022-09-21T00:11:27.617Z,8.11
2022-09-21T00:13:57.770Z,8.04
2022-09-21T00:16:26.021Z,7.93
2022-09-21T00:18:54.408Z,7.89
2022-09-21T00:21:22.480Z,7.73
2022-09-21T00:23:50.508Z,7.71
2022-09-21T00:26:21.305Z,7.63
2022-09-21T00:28:54.618Z,7.62
2022-09-21T00:31:23.336Z,7.57
2022-09-21T00:33:52.162Z,7.68
2022-09-21T00:36:22.301Z,7.55
2022-09-21T00:38:51.932Z,7.57
2022-09-21T00:41:21.575Z,7.48
2022-09-21T00:44:10.089Z,7.40
2022-09-21T00:46:40.236Z,7.41
2022-09-21T00:49:08.378Z,7.36
2022-09-21T00:51:37.481Z,7.20
2022-09-21T00:54:12.310Z,7.41
2022-09-21T00:56:43.239Z,7.39
2022-09-21T00:59:13.563Z,7.35
2022-09-21T01:01:42.808Z,7.43
2022-09-21T01:04:13.737Z,7.39
2022-09-21T01:06:42.603Z,7.39
2022-09-21T01:09:11.249Z,7.28
2022-09-21T01:11:49.714Z,7.20
2022-09-21T01:14:41.757Z,7.33
2022-09-21T01:17:15.960Z,7.28
2022-09-21T01:20:09.320Z,7.17
2022-09-21T01:22:53.475Z,7.18
2022-09-21T01:25:31.796Z,7.24
2022-09-21T01:28:14.257Z,7.27
2022-09-21T01:30:48.955Z,7.33
2022-09-21T01:33:23.318Z,7.28
2022-09-21T01:35:55.380Z,7.40
2022-09-21T01:38:27.534Z,7.47
2022-09-21T01:40:59.287Z,7.42
2022-09-21T01:43:33.398Z,7.36
2022-09-21T01:46:05.579Z,7.29
2022-09-21T01:48:37.645Z,7.32
2022-09-21T01:51:10.901Z,7.35
2022-09-21T01:53:42.520Z,7.41
2022-09-21T01:56:15.488Z,7.30
2022-09-21T01:58:48.830Z,7.48
2022-09-21T02:01:22.274Z,7.52
2022-09-21T02:03:54.155Z,7.42
2022-09-21T02:06:22.386Z,7.31
2022-09-21T02:08:50.303Z,7.30
2022-09-21T02:11:18.191Z,7.34
2022-09-21T02:13:48.136Z,7.24
2022-09-21T02:16:35.615Z,7.03
2022-09-21T02:19:15.700Z,7.03
2022-09-21T02:21:58.440Z,6.97
2022-09-21T02:24:36.668Z,6.85
2022-09-21T02:27:07.366Z,6.78
2022-09-21T02:29:45.158Z,6.78
2022-09-21T02:32:21.585Z,6.73
2022-09-21T02:34:58.392Z,6.72
2022-09-21T02:37:33.797Z,6.70
2022-09-21T02:40:09.762Z,6.61
2022-09-21T02:42:42.904Z,6.52
2022-09-21T02:45:15.455Z,6.63
2022-09-21T02:47:49.720Z,6.64
2022-09-21T02:50:23.233Z,6.65
2022-09-21T02:52:53.735Z,6.66
2022-09-21T02:55:22.109Z,6.65
2022-09-21T02:57:51.442Z,6.62
2022-09-21T03:00:19.549Z,6.62
2022-09-21T03:02:48.803Z,6.63
2022-09-21T03:05:16.908Z,6.55
2022-09-21T03:07:44.780Z,6.59
2022-09-21T03:10:12.636Z,6.60
2022-09-21T03:12:40.533Z,6.65
2022-09-21T03:15:08.787Z,6.62
2022-09-21T03:17:36.715Z,6.46
2022-09-21T03:20:06.695Z,6.54
2022-09-21T03:22:34.613Z,6.48
2022-09-21T03:25:02.608Z,6.44
2022-09-21T03:27:30.490Z,6.58
2022-09-21T03:30:02.473Z,6.56
2022-09-21T03:32:30.645Z,6.38
2022-09-21T03:34:58.633Z,6.34
2022-09-21T03:37:27.866Z,6.38
2022-09-21T03:39:55.835Z,6.50
2022-09-21T03:42:23.716Z,6.40
2022-09-21T03:44:51.625Z,6.36
2022-09-21T03:47:20.729Z,6.37
2022-09-21T03:49:48.677Z,6.42
2022-09-21T03:52:16.583Z,6.60
2022-09-21T03:54:46.053Z,6.61
2022-09-21T03:57:13.979Z,6.52
2022-09-21T03:59:42.147Z,6.54
2022-09-21T04:02:10.123Z,6.48
2022-09-21T04:04:37.983Z,6.48
2022-09-21T04:07:06.109Z,6.33
2022-09-21T04:09:34.006Z,6.32
2022-09-21T04:12:03.676Z,6.27
2022-09-21T04:14:31.538Z,6.33
2022-09-21T04:16:59.513Z,6.32
2022-09-21T04:19:27.487Z,6.42
2022-09-21T04:21:56.242Z,6.42
2022-09-21T04:24:24.761Z,6.52
2022-09-21T04:26:52.682Z,6.59
2022-09-21T04:29:22.029Z,6.64
2022-09-21T04:31:49.921Z,6.78
2022-09-21T04:34:17.794Z,6.84
2022-09-21T04:36:46.024Z,6.85
2022-09-21T04:39:13.888Z,7.08
2022-09-21T04:41:42.265Z,7.12
2022-09-21T04:44:10.243Z,7.08
2022-09-21T04:46:39.560Z,7.08
2022-09-21T04:49:08.807Z,7.16
2022-09-21T04:51:36.883Z,7.37
2022-09-21T04:54:05.120Z,7.56
2022-09-21T04:56:33.079Z,7.47
2022-09-21T04:59:01.091Z,7.58
2022-09-21T05:01:29.132Z,7.43
2022-09-21T05:04:02.588Z,7.32
2022-09-21T05:06:30.500Z,7.28
2022-09-21T05:09:16.017Z,7.24
2022-09-21T05:11:44.143Z,7.17
2022-09-21T05:14:12.152Z,7.17
2022-09-21T05:16:40.193Z,7.14
2022-09-21T05:19:09.500Z,7.24
2022-09-21T05:21:37.524Z,7.29
2022-09-21T05:24:05.861Z,7.34
2022-09-21T05:26:33.757Z,7.25
2022-09-21T05:29:02.366Z,7.49
2022-09-21T05:31:40.076Z,7.48
2022-09-21T05:34:26.735Z,7.59
2022-09-21T05:37:01.642Z,7.65
2022-09-21T05:39:30.248Z,7.72
2022-09-21T05:41:59.056Z,7.83
2022-09-21T05:44:27.473Z,7.96
2022-09-21T05:47:02.749Z,7.97
2022-09-21T05:49:45.831Z,8.12
2022-09-21T05:52:22.000Z,8.36
2022-09-21T05:55:03.560Z,8.50
2022-09-21T05:57:45.754Z,8.53
2022-09-21T06:00:19.088Z,8.74
2022-09-21T06:03:09.363Z,8.89
2022-09-21T06:05:38.781Z,8.92
2022-09-21T06:08:06.755Z,9.19
2022-09-21T06:10:36.731Z,9.19
2022-09-21T06:13:04.880Z,9.37
2022-09-21T06:15:32.827Z,9.27
2022-09-21T06:18:00.731Z,9.51
2022-09-21T06:20:28.717Z,9.50
2022-09-21T06:23:02.847Z,9.57
2022-09-21T06:25:30.964Z,9.68
2022-09-21T06:28:04.520Z,9.73
2022-09-21T06:30:35.734Z,9.78
2022-09-21T06:33:05.623Z,9.83
2022-09-21T06:35:35.772Z,9.89
2022-09-21T06:38:07.528Z,9.99
2022-09-21T06:40:37.474Z,10.07
2022-09-21T06:43:06.502Z,10.25
2022-09-21T06:45:34.686Z,10.26
2022-09-21T06:48:03.096Z,10.21
2022-09-21T06:50:31.196Z,10.33
2022-09-21T06:53:00.961Z,10.31
2022-09-21T06:55:30.605Z,10.33
2022-09-21T06:58:02.368Z,10.34
2022-09-21T07:00:30.930Z,10.29
2022-09-21T07:02:59.460Z,10.09
2022-09-21T07:05:28.057Z,10.21
2022-09-21T07:07:58.829Z,10.29
2022-09-21T07:10:27.562Z,10.43
2022-09-21T07:12:57.023Z,10.55
2022-09-21T07:15:25.317Z,10.66
2022-09-21T07:18:05.059Z,10.57
2022-09-21T07:20:33.881Z,10.62
2022-09-21T07:23:01.831Z,10.40
2022-09-21T07:25:29.739Z,10.37
2022-09-21T07:28:01.725Z,10.37
2022-09-21T07:30:29.677Z,10.53
2022-09-21T07:32:58.761Z,10.64
2022-09-21T07:35:26.729Z,10.69
2022-09-21T07:37:56.491Z,10.69
2022-09-21T07:40:25.309Z,10.58
2022-09-21T07:42:53.642Z,10.39
2022-09-21T07:45:23.195Z,10.43
2022-09-21T07:47:54.217Z,10.53
2022-09-21T07:50:22.284Z,10.60
2022-09-21T07:52:50.794Z,10.57
2022-09-21T07:55:18.861Z,10.62
2022-09-21T07:58:03.153Z,10.79
2022-09-21T08:00:35.042Z,10.90
2022-09-21T08:03:03.186Z,11.08
2022-09-21T08:05:31.149Z,11.47
2022-09-21T08:07:59.571Z,11.75
2022-09-21T08:10:29.494Z,11.67
2022-09-21T08:12:58.307Z,11.59
2022-09-21T08:15:47.712Z,11.48
2022-09-21T08:18:16.886Z,11.31
2022-09-21T08:20:44.805Z,11.39
2022-09-21T08:23:13.082Z,11.61
2022-09-21T08:25:41.185Z,11.89
2022-09-21T08:28:10.125Z,12.02
2022-09-21T08:30:38.227Z,12.06
2022-09-21T08:33:07.021Z,11.99
2022-09-21T08:35:37.066Z,12.00
2022-09-21T08:38:05.070Z,12.16
2022-09-21T08:40:34.388Z,12.20
2022-09-21T08:43:06.684Z,12.34
2022-09-21T08:45:39.184Z,12.41
2022-09-21T08:48:16.388Z,12.60
2022-09-21T08:50:50.772Z,12.86
2022-09-21T08:53:22.023Z,13.16
2022-09-21T08:55:50.103Z,13.28
2022-09-21T08:58:24.561Z,13.17
2022-09-21T09:01:08.014Z,12.83
2022-09-21T09:03:49.576Z,12.69
2022-09-21T09:06:29.877Z,12.64
2022-09-21T09:09:33.481Z,12.62
2022-09-21T09:12:18.629Z,12.83
2022-09-21T09:15:05.668Z,12.96
2022-09-21T09:17:45.744Z,12.94
2022-09-21T09:20:18.581Z,12.92
2022-09-21T09:22:52.289Z,12.84
2022-09-21T09:25:22.929Z,12.91
2022-09-21T09:27:55.565Z,13.02
2022-09-21T09:30:25.846Z,13.14
2022-09-21T09:33:00.834Z,13.21
2022-09-21T09:35:33.203Z,12.72
2022-09-21T09:38:13.129Z,12.51
2022-09-21T09:40:59.248Z,12.52
2022-09-21T09:43:42.346Z,12.83
2022-09-21T09:46:20.001Z,12.88
2022-09-21T09:49:05.473Z,12.87
2022-09-21T09:51:40.683Z,13.19
2022-09-21T09:54:16.187Z,13.92
2022-09-21T09:56:44.502Z,14.33
2022-09-21T09:59:20.969Z,14.25
2022-09-21T10:02:00.981Z,13.79
2022-09-21T10:04:29.256Z,13.70
2022-09-21T10:06:57.418Z,13.55
2022-09-21T10:09:29.156Z,13.41
2022-09-21T10:12:01.436Z,13.57
2022-09-21T10:14:34.165Z,13.73
2022-09-21T10:17:07.370Z,13.45
2022-09-21T10:19:35.457Z,13.15
2022-09-21T10:22:06.405Z,12.94
2022-09-21T10:24:40.746Z,13.60
2022-09-21T10:27:14.336Z,14.19
2022-09-21T10:29:44.768Z,14.69
2022-09-21T10:32:24.890Z,15.18
2022-09-21T10:35:15.206Z,15.16
2022-09-21T10:37:44.991Z,15.50
2022-09-21T10:40:30.793Z,16.11
2022-09-21T10:43:02.669Z,16.74
2022-09-21T10:45:32.659Z,16.38
2022-09-21T10:48:09.847Z,16.38
2022-09-21T10:50:40.047Z,16.54
2022-09-21T10:53:25.543Z,16.47
2022-09-21T10:56:14.890Z,16.18
2022-09-21T10:59:20.570Z,16.27
2022-09-21T11:01:50.870Z,15.89
2022-09-21T11:04:27.368Z,16.55
2022-09-21T11:07:02.054Z,17.10
2022-09-21T11:09:37.515Z,16.86
2022-09-21T11:12:17.097Z,16.58
2022-09-21T11:14:52.706Z,16.36
2022-09-21T11:17:28.133Z,16.40
2022-09-21T11:20:06.239Z,16.59
2022-09-21T11:22:39.445Z,16.31
2022-09-21T11:25:25.195Z,15.98
2022-09-21T11:28:01.580Z,16.30
2022-09-21T11:30:41.145Z,16.32
2022-09-21T11:33:24.985Z,16.72
2022-09-21T11:36:04.761Z,17.16
2022-09-21T11:38:45.471Z,17.53
2022-09-21T11:41:35.803Z,16.70
2022-09-21T11:44:30.121Z,15.60
2022-09-21T11:47:08.167Z,15.62
2022-09-21T11:49:49.507Z,14.77
2022-09-21T11:52:33.225Z,14.88
2022-09-21T11:55:18.146Z,14.56
2022-09-21T11:57:56.152Z,14.41
2022-09-21T12:00:27.977Z,14.45
2022-09-21T12:03:23.297Z,14.07
2022-09-21T12:06:04.352Z,13.69
2022-09-21T12:08:51.517Z,13.51
2022-09-21T12:11:30.948Z,13.75
2022-09-21T12:14:07.850Z,13.78
2022-09-21T12:16:47.301Z,14.82
2022-09-21T12:19:25.168Z,14.68
2022-09-21T12:21:58.039Z,14.51
2022-09-21T12:24:33.000Z,14.23
2022-09-21T12:27:06.389Z,14.30
2022-09-21T12:29:47.275Z,14.33
2022-09-21T12:32:22.719Z,14.30
2022-09-21T12:34:56.031Z,14.18
2022-09-21T12:37:31.840Z,13.93
2022-09-21T12:40:07.073Z,14.09
2022-09-21T12:42:42.120Z,14.24
2022-09-21T12:45:19.160Z,14.26
2022-09-21T12:47:56.851Z,14.09
2022-09-21T12:50:30.488Z,14.25
2022-09-21T12:52:59.473Z,14.25
2022-09-21T12:55:45.513Z,14.42
2022-09-21T12:58:35.279Z,14.50
2022-09-21T13:01:14.723Z,14.74
2022-09-21T13:04:02.877Z,15.43
2022-09-21T13:06:50.600Z,15.99
2022-09-21T13:09:21.914Z,16.18
2022-09-21T13:11:54.564Z,16.43
2022-09-21T13:14:24.322Z,15.99
2022-09-21T13:16:57.690Z,15.74
2022-09-21T13:19:31.148Z,15.83
2022-09-21T13:22:13.845Z,15.46
2022-09-21T13:24:44.245Z,15.15
2022-09-21T13:27:13.874Z,15.19
2022-09-21T13:29:43.129Z,15.89
2022-09-21T13:32:25.657Z,16.96
2022-09-21T13:35:33.374Z,17.59
2022-09-21T13:38:26.950Z,18.05
2022-09-21T13:41:07.193Z,17.91
2022-09-21T13:43:49.334Z,17.78
2022-09-21T13:46:55.561Z,17.56
2022-09-21T13:49:42.447Z,17.35
2022-09-21T13:52:37.378Z,16.88
2022-09-21T13:55:07.876Z,16.56
2022-09-21T13:57:41.075Z,15.93
2022-09-21T14:00:44.610Z,15.66
2022-09-21T14:03:25.884Z,15.53
2022-09-21T14:05:56.924Z,16.18
2022-09-21T14:08:43.209Z,16.43
2022-09-21T14:11:18.912Z,16.36
2022-09-21T14:13:49.717Z,16.16
2022-09-21T14:16:47.315Z,15.80
2022-09-21T14:20:03.769Z,15.36
2022-09-21T14:22:38.215Z,14.75
2022-09-21T14:25:49.033Z,14.70
2022-09-21T14:28:19.778Z,14.61
2022-09-21T14:30:56.397Z,15.19
2022-09-21T14:33:30.378Z,15.26
2022-09-21T14:36:02.194Z,15.06
2022-09-21T14:38:33.035Z,14.75
2022-09-21T14:41:07.456Z,14.43
2022-09-21T14:43:39.825Z,14.15
2022-09-21T14:46:36.149Z,14.12
2022-09-21T14:49:20.563Z,14.02
2022-09-21T14:52:04.288Z,14.01
2022-09-21T14:54:49.802Z,13.84
2022-09-21T14:57:37.343Z,13.63
2022-09-21T15:00:21.110Z,13.29
2022-09-21T15:02:57.456Z,13.14
2022-09-21T15:05:34.622Z,13.09
2022-09-21T15:08:38.719Z,13.06
2022-09-21T15:11:12.023Z,13.13
2022-09-21T15:14:00.026Z,13.07
2022-09-21T15:16:37.717Z,13.04
2022-09-21T15:19:24.761Z,13.12
2022-09-21T15:21:53.981Z,13.17
2022-09-21T15:24:26.772Z,13.13
2022-09-21T15:27:03.424Z,12.99
2022-09-21T15:29:33.987Z,12.99
2022-09-21T15:32:04.018Z,13.10
2022-09-21T15:34:32.276Z,13.24
2022-09-21T15:37:17.040Z,13.60
2022-09-21T15:39:44.985Z,14.04
2022-09-21T15:42:24.198Z,14.50
2022-09-21T15:45:07.171Z,14.93
2022-09-21T15:47:36.469Z,15.34
2022-09-21T15:50:05.103Z,15.48
2022-09-21T15:52:38.944Z,15.48
2022-09-21T15:55:15.024Z,15.56
2022-09-21T15:57:44.358Z,15.33
2022-09-21T16:00:24.855Z,14.68
2022-09-21T16:03:05.417Z,14.32
2022-09-21T16:05:43.187Z,14.13
2022-09-21T16:08:27.732Z,14.23
2022-09-21T16:11:13.434Z,14.28
2022-09-21T16:13:59.758Z,14.25
2022-09-21T16:16:27.996Z,13.74
2022-09-21T16:19:00.097Z,13.75
2022-09-21T16:21:32.601Z,13.46
2022-09-21T16:24:16.884Z,13.18
2022-09-21T16:26:57.621Z,13.15
2022-09-21T16:29:27.348Z,13.01
2022-09-21T16:32:23.384Z,12.77
2022-09-21T16:34:54.378Z,12.67
2022-09-21T16:37:30.480Z,12.44
2022-09-21T16:39:59.947Z,12.35
2022-09-21T16:42:33.000Z,12.35
2022-09-21T16:45:01.464Z,12.34
2022-09-21T16:47:34.795Z,12.24
2022-09-21T16:50:04.685Z,12.26
2022-09-21T16:52:32.616Z,12.26
2022-09-21T16:55:02.071Z,12.33
2022-09-21T16:57:30.012Z,12.30
2022-09-21T16:59:58.117Z,12.31
2022-09-21T17:02:26.033Z,12.28
2022-09-21T17:04:53.955Z,12.33
2022-09-21T17:07:23.473Z,12.30
2022-09-21T17:09:51.650Z,12.41
2022-09-21T17:12:20.410Z,12.37
2022-09-21T17:14:50.158Z,12.24
2022-09-21T17:17:20.789Z,11.89
2022-09-21T17:19:51.394Z,11.66
2022-09-21T17:22:20.203Z,11.46
2022-09-21T17:24:52.262Z,11.28
2022-09-21T17:27:22.707Z,11.20
2022-09-21T17:29:51.275Z,11.05
2022-09-21T17:32:21.470Z,10.91
2022-09-21T17:34:53.337Z,10.75
2022-09-21T17:37:21.961Z,10.59
2022-09-21T17:39:51.397Z,10.54
2022-09-21T17:42:21.787Z,10.44
2022-09-21T17:45:13.557Z,10.36
2022-09-21T17:47:42.780Z,10.46
2022-09-21T17:50:22.973Z,10.44
2022-09-21T17:53:09.433Z,10.30
2022-09-21T17:55:39.488Z,10.36
2022-09-21T17:58:20.007Z,10.23
2022-09-21T18:00:54.453Z,10.25
2022-09-21T18:03:24.549Z,10.25
2022-09-21T18:05:57.230Z,10.23
2022-09-21T18:08:27.013Z,10.12
2022-09-21T18:11:07.073Z,10.05
2022-09-21T18:13:45.852Z,10.01
2022-09-21T18:16:27.193Z,9.83
2022-09-21T18:19:05.537Z,9.89
2022-09-21T18:21:40.784Z,9.80
2022-09-21T18:24:20.294Z,9.70
2022-09-21T18:26:52.574Z,9.64
2022-09-21T18:29:40.838Z,9.55
2022-09-21T18:32:42.151Z,9.61
2022-09-21T18:35:19.319Z,9.55
2022-09-21T18:37:59.539Z,9.56
2022-09-21T18:40:37.455Z,9.62
2022-09-21T18:43:22.631Z,9.52
2022-09-21T18:45:56.431Z,9.57
2022-09-21T18:48:38.555Z,9.47
2022-09-21T18:51:15.923Z,9.43
2022-09-21T18:53:48.841Z,9.48
2022-09-21T18:56:17.663Z,9.51
2022-09-21T18:58:49.639Z,9.52
2022-09-21T19:01:19.150Z,9.50
2022-09-21T19:03:49.144Z,9.45
2022-09-21T19:06:30.678Z,9.26
2022-09-21T19:09:08.930Z,9.28
2022-09-21T19:11:43.835Z,9.20
2022-09-21T19:14:21.752Z,9.14
2022-09-21T19:17:07.616Z,9.16
2022-09-21T19:19:43.790Z,9.13
2022-09-21T19:22:15.756Z,9.13
2022-09-21T19:25:04.605Z,9.24
2022-09-21T19:27:39.856Z,9.21
2022-09-21T19:30:13.359Z,9.14
2022-09-21T19:32:45.732Z,9.12
2022-09-21T19:35:23.197Z,9.11
2022-09-21T19:37:53.716Z,9.09
2022-09-21T19:40:24.106Z,8.93
2022-09-21T19:43:04.027Z,8.77
2022-09-21T19:45:45.480Z,8.87
2022-09-21T19:48:17.044Z,8.77
2022-09-21T19:50:54.790Z,8.80
2022-09-21T19:53:41.559Z,8.77
2022-09-21T19:56:30.327Z,8.78
2022-09-21T19:59:15.960Z,8.87
2022-09-21T20:02:04.735Z,8.76
2022-09-21T20:04:39.260Z,8.70
2022-09-21T20:07:18.989Z,8.66
2022-09-21T20:09:58.960Z,8.64
2022-09-21T20:12:34.128Z,8.66
2022-09-21T20:15:08.922Z,8.72
2022-09-21T20:17:46.467Z,8.76
2022-09-21T20:20:21.583Z,8.71
2022-09-21T20:22:49.859Z,8.82
2022-09-21T20:25:22.411Z,8.75
2022-09-21T20:27:52.154Z,8.69
2022-09-21T20:30:24.448Z,8.78
2022-09-21T20:32:57.336Z,8.82
2022-09-21T20:35:28.437Z,8.82
2022-09-21T20:38:01.305Z,8.67
2022-09-21T20:40:32.723Z,8.67
2022-09-21T20:43:01.957Z,8.75
2022-09-21T20:45:30.810Z,8.73
2022-09-21T20:48:13.133Z,8.75
2022-09-21T20:50:42.338Z,8.64
2022-09-21T20:53:10.575Z,8.62
2022-09-21T20:55:38.583Z,8.63
2022-09-21T20:58:06.932Z,8.58
2022-09-21T21:00:34.940Z,8.54
2022-09-21T21:03:05.685Z,8.48
2022-09-21T21:05:36.429Z,8.51
2022-09-21T21:08:08.147Z,8.54
2022-09-21T21:10:37.175Z,8.49
2022-09-21T21:13:10.524Z,8.42
2022-09-21T21:15:38.490Z,8.49
2022-09-21T21:18:12.494Z,8.42
2022-09-21T21:20:41.117Z,8.41
2022-09-21T21:23:09.055Z,8.38
2022-09-21T21:25:39.831Z,8.38
2022-09-21T21:28:07.729Z,8.34
2022-09-21T21:30:35.616Z,8.39
2022-09-21T21:33:04.323Z,8.27
2022-09-21T21:35:33.555Z,8.25
2022-09-21T21:38:01.469Z,8.21
2022-09-21T21:40:29.403Z,8.23
2022-09-21T21:42:57.715Z,8.13
2022-09-21T21:45:25.816Z,8.17
2022-09-21T21:47:55.721Z,8.07
2022-09-21T21:50:23.842Z,8.08
2022-09-21T21:52:55.916Z,8.06
2022-09-21T21:55:23.791Z,8.00
2022-09-21T21:57:52.026Z,7.98
2022-09-21T22:00:20.186Z,7.96
2022-09-21T22:02:48.107Z,7.97
2022-09-21T22:05:16.021Z,7.96
2022-09-21T22:07:43.943Z,8.00
2022-09-21T22:10:13.247Z,7.98
2022-09-21T22:12:41.927Z,8.04
2022-09-21T22:15:10.973Z,8.04
2022-09-21T22:17:39.057Z,8.03
2022-09-21T22:20:08.260Z,8.05
2022-09-21T22:22:36.100Z,8.01
2022-09-21T22:25:04.338Z,8.05
2022-09-21T22:27:33.545Z,8.04
2022-09-21T22:30:01.457Z,8.01
2022-09-21T22:32:29.944Z,8.02
2022-09-21T22:34:57.822Z,8.04
2022-09-21T22:37:25.671Z,8.00
2022-09-21T22:39:53.856Z,7.92
2022-09-21T22:42:21.772Z,7.90
2022-09-21T22:44:50.988Z,7.91
2022-09-21T22:47:18.826Z,7.91
2022-09-21T22:49:46.686Z,7.85
2022-09-21T22:52:14.508Z,7.86
2022-09-21T22:54:42.368Z,7.74
2022-09-21T22:57:10.249Z,7.78
2022-09-21T22:59:38.120Z,7.81
2022-09-21T23:02:09.448Z,7.85
2022-09-21T23:04:37.313Z,7.97
2022-09-21T23:07:05.332Z,8.02
2022-09-21T23:09:33.236Z,7.98
2022-09-21T23:12:01.353Z,7.97
2022-09-21T23:14:29.341Z,7.94
2022-09-21T23:16:57.255Z,7.90
2022-09-21T23:19:26.551Z,7.90
2022-09-21T23:21:54.416Z,7.87
2022-09-21T23:24:22.651Z,7.81
2022-09-21T23:26:51.841Z,7.76
2022-09-21T23:29:19.918Z,7.75
2022-09-21T23:31:47.895Z,7.66
2022-09-21T23:34:16.719Z,7.72
2022-09-21T23:36:46.674Z,7.69
2022-09-21T23:39:16.671Z,7.63
2022-09-21T23:41:44.993Z,7.59
2022-09-21T23:44:13.355Z,7.57
2022-09-21T23:46:42.099Z,7.66
2022-09-21T23:49:10.181Z,7.59
2022-09-21T23:51:38.394Z,7.56
2022-09-21T23:54:07.971Z,7.55
2022-09-21T23:56:35.924Z,7.53
2022-09-21T23:59:04.134Z,7.47
